KHZY

Northeast Ohio Regional Airport

Ashtabula, Ohio, USA
METAR KHZY 202353Z AUTO 11003KT 10SM SCT042 24/22 A2999 RMK AO2 SLP150 T02390217 10272 20233 55001
Observed Flight Rules
Aug-20 @ 23:53 UTC (17 minutes ago) Visual Flight Rules
Wind Visibility Clouds
110° at 3 knots 10 miles
  • Scattered at 4,200' AGL
Temperatures Readings
Current 24°C / 75°F
Dewpoint 22°C / 72°F
Humidity 89%
Altimeter 29.99" Hg
Pressure 1015 hPa
Elevation 276
METAR KHZY 202353Z AUTO 11003KT 10SM SCT042 24/22 A2999 RMK AO2 SLP150 T02390217 10272 20233 55001
Observed Flight Rules
Aug-20 @ 23:53 UTC
(17 minutes ago)
VFR
Wind Visibility
110° at 3 knots 10 miles
Clouds
  • Scattered at 4,200' AGL
Temperature Dewpoint
24°C / 75°F 22°C / 72°F
Humidity Altimeter Pressure
89% 29.99" Hg 1015 hPa